createdAt,value
2023-03-06T00:00:53.229Z,5.12
2023-03-06T00:03:20.908Z,5.10
2023-03-06T00:05:48.128Z,5.10
2023-03-06T00:08:15.036Z,5.10
2023-03-06T00:10:41.866Z,5.08
2023-03-06T00:13:11.937Z,5.06
2023-03-06T00:15:38.750Z,5.01
2023-03-06T00:18:07.356Z,4.97
2023-03-06T00:20:35.023Z,4.96
2023-03-06T00:23:02.050Z,4.92
2023-03-06T00:25:28.907Z,4.88
2023-03-06T00:27:55.738Z,4.85
2023-03-06T00:30:24.478Z,4.84
2023-03-06T00:32:53.362Z,4.81
2023-03-06T00:35:21.540Z,4.77
2023-03-06T00:37:48.543Z,4.72
2023-03-06T00:40:17.141Z,4.68
2023-03-06T00:42:43.976Z,4.66
2023-03-06T00:45:11.454Z,4.66
2023-03-06T00:47:38.260Z,4.64
2023-03-06T00:50:05.869Z,4.61
2023-03-06T00:52:34.183Z,4.59
2023-03-06T00:55:00.835Z,4.56
2023-03-06T00:57:27.599Z,4.54
2023-03-06T00:59:54.261Z,4.51
2023-03-06T01:02:21.299Z,4.47
2023-03-06T01:04:48.074Z,4.46
2023-03-06T01:07:14.809Z,4.43
2023-03-06T01:09:42.948Z,4.41
2023-03-06T01:12:09.820Z,4.38
2023-03-06T01:14:36.576Z,4.37
2023-03-06T01:17:03.351Z,4.31
2023-03-06T01:19:30.151Z,4.27
2023-03-06T01:21:56.982Z,4.27
2023-03-06T01:24:25.816Z,4.26
2023-03-06T01:26:54.146Z,4.25
2023-03-06T01:29:21.032Z,4.26
2023-03-06T01:31:47.804Z,4.23
2023-03-06T01:34:14.603Z,4.22
2023-03-06T01:36:41.412Z,4.20
2023-03-06T01:39:08.241Z,4.17
2023-03-06T01:41:35.317Z,4.17
2023-03-06T01:44:03.786Z,4.11
2023-03-06T01:46:34.437Z,4.12
2023-03-06T01:49:06.180Z,4.12
2023-03-06T01:51:37.951Z,4.11
2023-03-06T01:54:11.766Z,4.09
2023-03-06T01:56:43.471Z,4.08
2023-03-06T01:59:16.778Z,4.11
2023-03-06T02:01:44.716Z,4.09
2023-03-06T02:04:11.995Z,4.08
2023-03-06T02:06:43.184Z,4.08
2023-03-06T02:09:11.984Z,4.07
2023-03-06T02:11:39.084Z,4.07
2023-03-06T02:14:05.889Z,4.06
2023-03-06T02:16:34.259Z,4.05
2023-03-06T02:19:02.831Z,4.05
2023-03-06T02:21:34.299Z,4.03
2023-03-06T02:24:14.840Z,4.03
2023-03-06T02:26:45.261Z,4.02
2023-03-06T02:29:11.997Z,4.01
2023-03-06T02:31:38.725Z,4.01
2023-03-06T02:34:28.270Z,4.00
2023-03-06T02:36:58.630Z,3.98
2023-03-06T02:39:27.669Z,3.98
2023-03-06T02:41:55.817Z,3.95
2023-03-06T02:44:23.362Z,3.93
2023-03-06T02:46:50.025Z,3.94
2023-03-06T02:49:16.752Z,3.94
2023-03-06T02:51:43.495Z,3.95
2023-03-06T02:54:11.001Z,3.96
2023-03-06T02:56:37.949Z,3.94
2023-03-06T02:59:06.102Z,3.93
2023-03-06T03:01:32.843Z,3.91
2023-03-06T03:03:59.695Z,3.91
2023-03-06T03:06:26.431Z,3.91
2023-03-06T03:08:53.120Z,3.90
2023-03-06T03:11:20.014Z,3.89
2023-03-06T03:13:46.740Z,3.92
2023-03-06T03:16:15.808Z,3.94
2023-03-06T03:18:44.627Z,3.91
2023-03-06T03:21:13.112Z,3.92
2023-03-06T03:23:40.131Z,3.91
2023-03-06T03:26:08.010Z,3.92
2023-03-06T03:28:34.773Z,3.91
2023-03-06T03:31:03.553Z,3.93
2023-03-06T03:33:31.700Z,3.90
2023-03-06T03:35:59.116Z,3.91
2023-03-06T03:38:26.223Z,3.92
2023-03-06T03:40:53.182Z,3.94
2023-03-06T03:51:13.901Z,3.89
2023-03-06T03:53:40.691Z,3.89
2023-03-06T03:56:07.431Z,3.85
2023-03-06T03:58:34.300Z,3.85
2023-03-06T04:01:01.426Z,3.84
2023-03-06T04:03:28.163Z,3.84
2023-03-06T04:05:57.939Z,3.86
2023-03-06T04:08:26.613Z,3.87
2023-03-06T04:10:54.107Z,3.88
2023-03-06T04:13:22.345Z,3.89
2023-03-06T04:15:50.936Z,3.88
2023-03-06T04:18:18.605Z,3.90
2023-03-06T04:20:46.489Z,3.87
2023-03-06T04:23:13.864Z,3.87
2023-03-06T04:25:42.156Z,3.85
2023-03-06T04:28:09.287Z,3.85
2023-03-06T04:30:36.520Z,3.86
2023-03-06T04:33:40.636Z,3.87
2023-03-06T04:36:08.082Z,3.86
2023-03-06T04:38:34.934Z,3.85
2023-03-06T04:41:03.062Z,3.87
2023-03-06T04:43:29.737Z,3.86
2023-03-06T04:45:58.150Z,3.85
2023-03-06T04:48:24.875Z,3.87
2023-03-06T04:50:51.576Z,3.88
2023-03-06T04:53:19.636Z,3.88
2023-03-06T04:55:46.545Z,3.87
2023-03-06T04:58:15.156Z,3.88
2023-03-06T05:00:41.847Z,3.89
2023-03-06T05:03:09.014Z,3.89
2023-03-06T05:05:35.747Z,3.89
2023-03-06T05:08:02.442Z,3.91
2023-03-06T05:10:29.244Z,3.91
2023-03-06T05:12:55.941Z,3.93
2023-03-06T05:15:24.027Z,3.91
2023-03-06T05:17:51.016Z,3.90
2023-03-06T05:20:18.226Z,3.90
2023-03-06T05:22:45.136Z,3.92
2023-03-06T05:25:11.942Z,3.91
2023-03-06T05:27:39.044Z,3.92
2023-03-06T05:30:07.389Z,3.94
2023-03-06T05:32:36.018Z,3.96
2023-03-06T05:35:04.384Z,3.97
2023-03-06T05:37:31.921Z,3.97
2023-03-06T05:39:58.970Z,3.98
2023-03-06T05:42:27.612Z,3.98
2023-03-06T05:44:55.255Z,3.99
2023-03-06T05:47:21.938Z,4.01
2023-03-06T05:49:50.396Z,4.01
2023-03-06T05:52:17.610Z,4.01
2023-03-06T05:54:44.482Z,4.01
2023-03-06T05:57:11.341Z,4.02
2023-03-06T05:59:38.041Z,4.01
2023-03-06T06:02:05.620Z,4.01
2023-03-06T06:04:32.684Z,4.02
2023-03-06T06:07:01.156Z,4.02
2023-03-06T06:09:28.612Z,4.02
2023-03-06T06:11:57.958Z,4.05
2023-03-06T06:14:25.637Z,4.04
2023-03-06T06:16:52.828Z,4.03
2023-03-06T06:19:20.348Z,4.05
2023-03-06T06:21:48.609Z,4.05
2023-03-06T06:24:18.905Z,4.05
2023-03-06T06:26:46.101Z,4.06
2023-03-06T06:29:13.504Z,4.07
2023-03-06T06:31:40.699Z,4.07
2023-03-06T06:34:09.059Z,4.06
2023-03-06T06:36:35.958Z,4.05
2023-03-06T06:39:03.706Z,4.06
2023-03-06T06:41:46.639Z,4.05
2023-03-06T06:44:19.353Z,4.06
2023-03-06T06:49:33.923Z,4.08
2023-03-06T06:52:01.010Z,4.09
2023-03-06T06:54:28.213Z,4.10
2023-03-06T06:56:56.415Z,4.12
2023-03-06T06:59:24.100Z,4.13
2023-03-06T07:01:52.393Z,4.14
2023-03-06T07:04:20.461Z,4.14
2023-03-06T07:06:55.134Z,4.16
2023-03-06T07:09:25.068Z,4.16
2023-03-06T07:11:52.192Z,4.17
2023-03-06T07:14:23.656Z,4.17
2023-03-06T07:16:52.115Z,4.20
2023-03-06T07:19:18.962Z,4.22
2023-03-06T07:21:45.764Z,4.23
2023-03-06T07:24:17.319Z,4.25
2023-03-06T07:26:46.724Z,4.27
2023-03-06T07:29:13.873Z,4.27
2023-03-06T07:31:43.670Z,4.31
2023-03-06T07:34:13.775Z,4.33
2023-03-06T07:36:41.366Z,4.36
2023-03-06T07:39:10.204Z,4.37
2023-03-06T07:41:37.918Z,4.38
2023-03-06T07:44:04.700Z,4.40
2023-03-06T07:46:31.511Z,4.40
2023-03-06T07:49:00.739Z,4.44
2023-03-06T07:51:27.559Z,4.45
2023-03-06T07:53:54.410Z,4.48
2023-03-06T07:56:21.197Z,4.49
2023-03-06T07:58:48.353Z,4.52
2023-03-06T08:01:17.378Z,4.55
2023-03-06T08:03:45.323Z,4.58
2023-03-06T08:06:21.850Z,4.63
2023-03-06T08:08:53.306Z,4.66
2023-03-06T08:11:22.231Z,4.69
2023-03-06T08:13:52.707Z,4.71
2023-03-06T08:16:22.269Z,4.76
2023-03-06T08:18:49.021Z,4.77
2023-03-06T08:21:20.679Z,4.81
2023-03-06T08:23:48.092Z,4.84
2023-03-06T08:26:16.767Z,4.86
2023-03-06T08:28:50.977Z,4.91
2023-03-06T08:31:28.692Z,4.94
2023-03-06T08:33:57.148Z,4.97
2023-03-06T08:36:27.031Z,4.99
2023-03-06T08:38:54.273Z,5.04
2023-03-06T08:41:21.825Z,5.08
2023-03-06T08:43:50.288Z,5.12
2023-03-06T08:46:18.936Z,5.17
2023-03-06T08:48:47.793Z,5.21
2023-03-06T08:51:15.691Z,5.25
2023-03-06T08:53:45.808Z,5.29
2023-03-06T08:56:18.900Z,5.30
2023-03-06T08:58:49.063Z,5.34
2023-03-06T09:01:17.640Z,5.35
2023-03-06T09:03:44.794Z,5.36
2023-03-06T09:06:13.606Z,5.41
2023-03-06T09:08:43.276Z,5.43
2023-03-06T09:11:13.245Z,5.44
2023-03-06T09:13:40.856Z,5.43
2023-03-06T09:16:08.444Z,5.45
2023-03-06T09:18:35.360Z,5.46
2023-03-06T09:21:02.518Z,5.45
2023-03-06T09:23:29.376Z,5.46
2023-03-06T09:25:58.302Z,5.48
2023-03-06T09:28:26.896Z,5.51
2023-03-06T09:30:55.201Z,5.56
2023-03-06T09:33:22.979Z,5.60
2023-03-06T09:35:52.108Z,5.61
2023-03-06T09:38:20.340Z,5.64
2023-03-06T09:41:04.281Z,5.62
2023-03-06T09:43:38.403Z,5.62
2023-03-06T09:46:20.018Z,5.62
2023-03-06T09:49:01.944Z,5.68
2023-03-06T09:51:39.348Z,5.71
2023-03-06T09:54:12.525Z,5.77
2023-03-06T09:56:46.208Z,5.84
2023-03-06T09:59:19.113Z,5.89
2023-03-06T10:01:57.605Z,5.93
2023-03-06T10:04:38.627Z,5.94
2023-03-06T10:07:13.214Z,6.00
2023-03-06T10:09:45.426Z,6.06
2023-03-06T10:12:24.514Z,6.11
2023-03-06T10:15:02.043Z,6.15
2023-03-06T10:17:36.363Z,6.21
2023-03-06T10:20:15.487Z,6.26
2023-03-06T10:22:52.567Z,6.30
2023-03-06T10:25:31.481Z,6.31
2023-03-06T10:28:09.185Z,6.33
2023-03-06T10:30:46.839Z,6.38
2023-03-06T10:33:22.434Z,6.42
2023-03-06T10:35:50.827Z,6.46
2023-03-06T10:38:21.134Z,6.49
2023-03-06T10:40:58.592Z,6.53
2023-03-06T10:43:25.432Z,6.57
2023-03-06T10:45:53.963Z,6.62
2023-03-06T10:48:23.218Z,6.67
2023-03-06T10:50:50.412Z,6.74
2023-03-06T10:53:25.578Z,6.79
2023-03-06T10:55:54.987Z,6.82
2023-03-06T10:58:26.097Z,6.85
2023-03-06T11:01:19.459Z,6.92
2023-03-06T11:03:50.891Z,6.96
2023-03-06T11:06:34.912Z,6.95
2023-03-06T11:09:14.418Z,7.00
2023-03-06T11:11:44.852Z,7.04
2023-03-06T11:14:17.625Z,7.05
2023-03-06T11:16:56.181Z,7.10
2023-03-06T11:19:27.336Z,7.16
2023-03-06T11:22:19.169Z,7.22
2023-03-06T11:24:50.713Z,7.27
2023-03-06T11:27:28.075Z,7.33
2023-03-06T11:29:58.818Z,7.37
2023-03-06T11:32:30.653Z,7.38
2023-03-06T11:35:03.910Z,7.43
2023-03-06T11:37:43.614Z,7.48
2023-03-06T11:40:20.040Z,7.56
2023-03-06T11:42:53.940Z,7.60
2023-03-06T11:45:26.608Z,7.65
2023-03-06T11:48:12.109Z,7.68
2023-03-06T11:50:42.745Z,7.71
2023-03-06T11:53:12.282Z,7.74
2023-03-06T11:55:53.649Z,7.75
2023-03-06T11:58:52.390Z,7.75
2023-03-06T12:01:26.711Z,7.77
2023-03-06T12:04:25.179Z,7.79
2023-03-06T12:07:01.916Z,7.82
2023-03-06T12:09:40.698Z,7.86
2023-03-06T12:12:27.334Z,7.90
2023-03-06T12:15:10.355Z,7.93
2023-03-06T12:17:54.096Z,7.99
2023-03-06T12:20:39.076Z,8.03
2023-03-06T12:23:19.759Z,8.09
2023-03-06T12:25:52.175Z,8.13
2023-03-06T12:28:40.727Z,8.19
2023-03-06T12:31:32.760Z,8.25
2023-03-06T12:34:17.543Z,8.25
2023-03-06T12:37:00.018Z,8.27
2023-03-06T12:39:42.565Z,8.31
2023-03-06T12:42:23.981Z,8.34
2023-03-06T12:45:29.644Z,8.38
2023-03-06T12:47:59.339Z,8.40
2023-03-06T12:50:32.577Z,8.42
2023-03-06T12:53:04.525Z,8.43
2023-03-06T12:55:39.651Z,8.45
2023-03-06T12:58:49.319Z,8.48
2023-03-06T13:01:48.324Z,8.49
2023-03-06T13:04:35.599Z,8.52
2023-03-06T13:07:32.398Z,8.53
2023-03-06T13:10:07.907Z,8.56
2023-03-06T13:12:57.406Z,8.56
2023-03-06T13:15:42.896Z,8.57
2023-03-06T13:18:46.156Z,8.61
2023-03-06T13:21:46.291Z,8.63
2023-03-06T13:24:19.724Z,8.64
2023-03-06T13:27:01.265Z,8.66
2023-03-06T13:30:30.991Z,8.70
2023-03-06T13:32:58.395Z,8.74
2023-03-06T13:35:54.769Z,8.75
2023-03-06T13:39:03.565Z,8.79
2023-03-06T13:41:41.775Z,8.84
2023-03-06T13:44:47.453Z,8.86
2023-03-06T13:48:09.758Z,8.87
2023-03-06T13:50:38.042Z,8.87
2023-03-06T13:53:36.710Z,8.87
2023-03-06T13:56:18.160Z,8.90
2023-03-06T13:59:00.211Z,8.90
2023-03-06T14:01:42.013Z,8.89
2023-03-06T14:04:34.552Z,8.90
2023-03-06T14:07:11.595Z,8.90
2023-03-06T14:09:44.885Z,8.89
2023-03-06T14:12:20.649Z,8.89
2023-03-06T14:14:52.982Z,8.90
2023-03-06T14:17:26.726Z,8.93
2023-03-06T14:19:58.177Z,8.93
2023-03-06T14:22:25.083Z,8.91
2023-03-06T14:24:56.487Z,8.89
2023-03-06T14:27:48.101Z,8.90
2023-03-06T14:30:20.188Z,8.91
2023-03-06T14:32:48.556Z,8.91
2023-03-06T14:35:26.831Z,8.91
2023-03-06T14:37:56.908Z,8.91
2023-03-06T14:40:31.759Z,8.89
2023-03-06T14:43:22.006Z,8.89
2023-03-06T14:45:56.369Z,8.89
2023-03-06T14:48:26.860Z,8.88
2023-03-06T14:50:56.275Z,8.88
2023-03-06T14:53:28.793Z,8.84
2023-03-06T14:56:00.392Z,8.80
2023-03-06T14:58:32.570Z,8.74
2023-03-06T15:01:04.002Z,8.63
2023-03-06T15:03:42.354Z,8.56
2023-03-06T15:06:15.534Z,8.41
2023-03-06T15:08:48.095Z,8.38
2023-03-06T15:11:15.182Z,8.33
2023-03-06T15:13:44.421Z,8.31
2023-03-06T15:16:29.628Z,8.27
2023-03-06T15:19:00.291Z,8.27
2023-03-06T15:21:38.335Z,8.24
2023-03-06T15:24:30.654Z,8.21
2023-03-06T15:27:01.488Z,8.16
2023-03-06T15:29:28.414Z,8.12
2023-03-06T15:32:15.049Z,8.09
2023-03-06T15:34:42.364Z,8.09
2023-03-06T15:37:28.691Z,8.07
2023-03-06T15:40:11.337Z,8.04
2023-03-06T15:42:38.149Z,8.01
2023-03-06T15:45:15.874Z,7.98
2023-03-06T15:47:43.305Z,7.97
2023-03-06T15:50:19.075Z,7.95
2023-03-06T15:52:49.283Z,7.90
2023-03-06T15:55:17.865Z,7.88
2023-03-06T15:57:49.925Z,7.84
2023-03-06T16:00:27.595Z,7.81
2023-03-06T16:02:57.196Z,7.76
2023-03-06T16:05:26.012Z,7.67
2023-03-06T16:07:55.170Z,7.59
2023-03-06T16:10:23.608Z,7.49
2023-03-06T16:12:54.103Z,7.42
2023-03-06T16:15:23.982Z,7.37
2023-03-06T16:17:50.755Z,7.32
2023-03-06T16:20:20.134Z,7.27
2023-03-06T16:22:48.014Z,7.24
2023-03-06T16:25:17.558Z,7.25
2023-03-06T16:27:49.743Z,7.22
2023-03-06T16:30:19.055Z,7.19
2023-03-06T16:32:49.050Z,7.16
2023-03-06T16:35:16.024Z,7.14
2023-03-06T16:37:43.087Z,7.11
2023-03-06T16:40:20.174Z,7.07
2023-03-06T16:42:47.247Z,7.06
2023-03-06T16:45:14.838Z,7.07
2023-03-06T16:47:42.580Z,7.06
2023-03-06T16:50:22.090Z,7.05
2023-03-06T16:52:51.702Z,7.03
2023-03-06T16:55:21.037Z,7.03
2023-03-06T16:57:48.216Z,7.03
2023-03-06T17:00:16.855Z,7.03
2023-03-06T17:02:43.885Z,7.01
2023-03-06T17:05:13.594Z,6.99
2023-03-06T17:07:40.994Z,6.96
2023-03-06T17:10:10.465Z,6.92
2023-03-06T17:12:38.605Z,6.86
2023-03-06T17:15:07.746Z,6.81
2023-03-06T17:17:35.186Z,6.79
2023-03-06T17:20:02.209Z,6.77
2023-03-06T17:22:29.035Z,6.72
2023-03-06T17:24:56.142Z,6.68
2023-03-06T17:27:23.305Z,6.63
2023-03-06T17:29:51.840Z,6.59
2023-03-06T17:32:18.920Z,6.57
2023-03-06T17:34:46.975Z,6.56
2023-03-06T17:37:14.014Z,6.50
2023-03-06T17:39:41.661Z,6.46
2023-03-06T17:42:09.037Z,6.43
2023-03-06T17:44:36.485Z,6.41
2023-03-06T17:47:12.986Z,6.41
2023-03-06T17:49:41.218Z,6.39
2023-03-06T17:52:08.320Z,6.39
2023-03-06T17:54:40.777Z,6.38
2023-03-06T17:57:08.050Z,6.34
2023-03-06T17:59:35.141Z,6.31
2023-03-06T18:02:02.809Z,6.30
2023-03-06T18:04:32.310Z,6.26
2023-03-06T18:06:59.297Z,6.22
2023-03-06T18:09:27.646Z,6.18
2023-03-06T18:11:55.895Z,6.17
2023-03-06T18:14:22.979Z,6.15
2023-03-06T18:16:50.330Z,6.13
2023-03-06T18:19:17.859Z,6.10
2023-03-06T18:21:49.657Z,6.09
2023-03-06T18:24:18.119Z,6.05
2023-03-06T18:26:45.864Z,6.05
2023-03-06T18:29:13.670Z,6.02
2023-03-06T18:31:42.289Z,6.01
2023-03-06T18:34:16.247Z,5.99
2023-03-06T18:36:44.016Z,5.99
2023-03-06T18:39:14.673Z,5.99
2023-03-06T18:41:42.454Z,5.99
2023-03-06T18:44:15.230Z,5.99
2023-03-06T18:46:43.766Z,5.98
2023-03-06T18:49:11.811Z,5.97
2023-03-06T18:51:41.184Z,5.97
2023-03-06T18:54:08.362Z,5.95
2023-03-06T18:56:36.711Z,5.95
2023-03-06T18:59:05.120Z,5.93
2023-03-06T19:01:38.269Z,5.92
2023-03-06T19:04:05.900Z,5.90
2023-03-06T19:06:33.275Z,5.88
2023-03-06T19:09:02.802Z,5.87
2023-03-06T19:11:40.915Z,5.85
2023-03-06T19:14:10.188Z,5.85
2023-03-06T19:16:37.594Z,5.83
2023-03-06T19:19:04.567Z,5.83
2023-03-06T19:21:31.913Z,5.82
2023-03-06T19:24:01.682Z,5.81
2023-03-06T19:26:31.683Z,5.78
2023-03-06T19:28:59.071Z,5.77
2023-03-06T19:31:29.344Z,5.77
2023-03-06T19:33:57.951Z,5.75
2023-03-06T19:36:28.829Z,5.77
2023-03-06T19:38:58.986Z,5.77
2023-03-06T19:41:27.363Z,5.75
2023-03-06T19:43:58.694Z,5.75
2023-03-06T19:46:30.043Z,5.73
2023-03-06T19:49:01.269Z,5.72
2023-03-06T19:51:30.218Z,5.73
2023-03-06T19:53:58.340Z,5.73
2023-03-06T19:56:26.870Z,5.71
2023-03-06T19:58:54.441Z,5.69
2023-03-06T20:01:23.579Z,5.65
2023-03-06T20:03:58.685Z,5.63
2023-03-06T20:06:30.497Z,5.60
2023-03-06T20:08:57.820Z,5.60
2023-03-06T20:11:30.170Z,5.59
2023-03-06T20:13:58.312Z,5.56
2023-03-06T20:16:27.919Z,5.55
2023-03-06T20:18:59.395Z,5.54
2023-03-06T20:21:28.124Z,5.54
2023-03-06T20:23:57.981Z,5.55
2023-03-06T20:26:29.311Z,5.56
2023-03-06T20:28:56.635Z,5.55
2023-03-06T20:31:26.321Z,5.54
2023-03-06T20:33:54.994Z,5.53
2023-03-06T20:36:25.135Z,5.53
2023-03-06T20:38:52.002Z,5.53
2023-03-06T20:41:20.928Z,5.51
2023-03-06T20:43:50.128Z,5.51
2023-03-06T20:46:18.469Z,5.51
2023-03-06T20:48:49.124Z,5.49
2023-03-06T20:51:18.731Z,5.48
2023-03-06T20:53:50.920Z,5.44
2023-03-06T20:56:25.506Z,5.45
2023-03-06T20:58:55.626Z,5.44
2023-03-06T21:01:26.909Z,5.42
2023-03-06T21:03:56.846Z,5.42
2023-03-06T21:06:27.073Z,5.39
2023-03-06T21:08:58.390Z,5.37
2023-03-06T21:11:26.009Z,5.38
2023-03-06T21:13:56.576Z,5.39
2023-03-06T21:16:25.756Z,5.40
2023-03-06T21:19:04.099Z,5.41
2023-03-06T21:21:54.811Z,5.41
2023-03-06T21:24:23.325Z,5.41
2023-03-06T21:26:52.143Z,5.42
2023-03-06T21:29:20.345Z,5.43
2023-03-06T21:31:49.984Z,5.44
2023-03-06T21:34:17.606Z,5.45
2023-03-06T21:36:52.494Z,5.44
2023-03-06T21:39:20.229Z,5.46
2023-03-06T21:41:48.524Z,5.46
2023-03-06T21:44:17.798Z,5.48
2023-03-06T21:46:45.795Z,5.50
2023-03-06T21:49:13.066Z,5.51
2023-03-06T21:51:43.342Z,5.53
2023-03-06T21:54:10.666Z,5.54
2023-03-06T21:56:41.727Z,5.53
2023-03-06T21:59:17.681Z,5.54
2023-03-06T22:01:45.108Z,5.55
2023-03-06T22:04:12.249Z,5.57
2023-03-06T22:06:41.422Z,5.56
2023-03-06T22:09:16.606Z,5.57
2023-03-06T22:11:44.417Z,5.60
2023-03-06T22:14:15.026Z,5.62
2023-03-06T22:16:42.308Z,5.65
2023-03-06T22:19:12.639Z,5.67
2023-03-06T22:21:40.899Z,5.66
2023-03-06T22:24:11.067Z,5.66
2023-03-06T22:26:38.935Z,5.68
2023-03-06T22:29:06.408Z,5.67
2023-03-06T22:31:40.286Z,5.69
2023-03-06T22:34:08.933Z,5.70
2023-03-06T22:36:36.352Z,5.71
2023-03-06T22:39:07.505Z,5.72
2023-03-06T22:41:34.727Z,5.75
2023-03-06T22:44:03.824Z,5.77
2023-03-06T22:46:32.240Z,5.79
2023-03-06T22:49:11.534Z,5.79
2023-03-06T22:51:40.846Z,5.78
2023-03-06T22:54:09.269Z,5.80
2023-03-06T22:56:37.018Z,5.82
2023-03-06T22:59:04.832Z,5.84
2023-03-06T23:01:38.158Z,5.85
2023-03-06T23:04:11.868Z,5.85
2023-03-06T23:06:45.694Z,5.88
2023-03-06T23:09:18.474Z,5.89
2023-03-06T23:11:45.449Z,5.92
2023-03-06T23:14:12.872Z,5.92
2023-03-06T23:16:40.803Z,5.91
2023-03-06T23:19:09.600Z,5.92
2023-03-06T23:21:37.509Z,5.93
2023-03-06T23:24:05.708Z,5.95
2023-03-06T23:26:36.698Z,5.96
2023-03-06T23:29:04.866Z,5.96
2023-03-06T23:31:35.859Z,5.96
2023-03-06T23:34:06.306Z,5.97
2023-03-06T23:36:34.750Z,5.97
2023-03-06T23:39:02.204Z,5.96
2023-03-06T23:41:29.105Z,5.96
2023-03-06T23:43:58.926Z,5.95
2023-03-06T23:46:26.094Z,5.96
2023-03-06T23:48:53.084Z,5.97
2023-03-06T23:51:22.140Z,5.97
2023-03-06T23:53:55.249Z,5.98
2023-03-06T23:56:23.935Z,5.96
2023-03-06T23:58:51.816Z,5.97
